Terminal Aerodrome Forecast
Issued by NWS

Home | Current Version | Previous Version | Text Only | Print | Product List | Glossary On
Versions: 1 2 3 4 5 6 7 8 9 10 11 12 13 14 15 16 17 18 19 20 21 22 23 24 25 26 27 28 29 30 31 32 33 34
000
FTUS42 KCAE 020900 AAD
TAFDNL
TAF AMD
KDNL 020938Z 0210/0306 13006KT P6SM BKN012
      TEMPO 0210/0212 SCT012
     FM021400 13009KT P6SM SCT050
     FM022300 17009KT P6SM VCSH BKN025
     FM030400 17007KT P6SM BKN020=

USA.gov is the U.S. government's official web portal to all federal, state and local government web resources and services.